Time;durP1;ratioP1;P1;durP2;ratioP2;P2;SDS_P1;SDS_P2;PMS_P1;PMS_P2;Temp;Humidity;BMP_temperature;BMP_pressure;BME280_temperature;BME280_humidity;BME280_pressure;Samples;Min_cycle;Max_cycle;Signal;HPM_P1;HPM_P2
2021/06/27 07:44:05;;;;;;;;;;;;;;;;;;5076608;27;1820;-60
2021/06/27 07:46:31;;;;;;;;;;;;;;;;;;5063160;28;2041;-61
2021/06/27 07:48:56;;;;;;;;;;;;;;;;;;5064725;28;1935;-62
2021/06/27 07:51:21;;;;;;;;;;;;;;;;;;5062556;28;1950;-62
2021/06/27 07:53:46;;;;;;;;;;;;;;;;;;5060088;28;1813;-62
2021/06/27 07:56:12;;;;;;;;;;;;;;;;;;5063269;28;3882;-62
2021/06/27 07:58:37;;;;;;;;;;;;;;;;;;5060269;28;2074;-61
2021/06/27 08:01:02;;;;;;;;;;;;;;;;;;5062595;28;1975;-61
2021/06/27 08:03:28;;;;;;;;;;;;;;;;;;5062667;28;3212;-61
2021/06/27 08:05:53;;;;;;;;;;;;;;;;;;5066419;28;1954;-61
2021/06/27 08:08:18;;;;;;;;;;;;;;;;;;5060716;28;1674;-59
2021/06/27 08:10:44;;;;;;;;;;;;;;;;;;5064322;28;2061;-60
2021/06/27 08:13:12;;;;;;;;;;;;;;;;;;5064789;28;3172;-60
2021/06/27 08:18:27;;;;;;;;;;;;;;;;;;5083368;28;1936;-60
2021/06/27 08:20:52;;;;;;;;;;;;;;;;;;5083540;28;1806;-58
2021/06/27 08:23:17;;;;;;;;;;;;;;;;;;5082713;28;2380;-58
2021/06/27 08:25:43;;;;;;;;;;;;;;;;;;5083051;28;2071;-60
2021/06/27 08:28:08;;;;;;;;;;;;;;;;;;5087638;28;2078;-60
2021/06/27 08:30:33;;;;;;;;;;;;;;;;;;5086777;28;1927;-60
2021/06/27 08:32:58;;;;;;;;;;;;;;;;;;5080857;28;3314;-60
2021/06/27 08:35:24;;;;;;;;;;;;;;;;;;5083549;28;1951;-60
2021/06/27 08:37:49;;;;;;;;;;;;;;;;;;5063442;28;3490;-60
2021/06/27 08:40:15;;;;;;;;;;;;;;;;;;5080798;28;3452;-60
2021/06/27 08:42:40;;;;;;;;;;;;;;;;;;5087038;28;3651;-60
2021/06/27 08:45:06;;;;;;;;;;;;;;;;;;5096076;28;1966;-60
2021/06/27 08:47:32;;;;;;;;;;;;;;;;;;5087286;28;3221;-60
2021/06/27 08:49:57;;;;;;;;;;;;;;;;;;5084407;28;1377;-60
2021/06/27 08:52:23;;;;;;;;;;;;;;;;;;5098614;28;3476;-60
2021/06/27 08:54:49;;;;;;;;;;;;;;;;;;5053114;28;3531;-60
2021/06/27 08:57:14;;;;;;;;;;;;;;;;;;5070603;28;3167;-60
2021/06/27 08:59:40;;;;;;;;;;;;;;;;;;5084126;28;1983;-60
2021/06/27 09:02:05;;;;;;;;;;;;;;;;;;5068855;28;2003;-59
2021/06/27 09:04:33;;;;;;;;;;;;;;;;;;5066573;28;2147;-60
2021/06/27 09:07:17;;;;;;;;;;;;;;;;;;5060414;28;1981;-62
2021/06/27 09:09:42;;;;;;;;;;;;;;;;;;5067031;28;1544;-61
2021/06/27 09:12:11;;;;;;;;;;;;;;;;;;5065140;28;1981;-60
2021/06/27 09:14:37;;;;;;;;;;;;;;;;;;5064016;28;1502;-61
2021/06/27 09:17:07;;;;;;;;;;;;;;;;;;5063257;28;3662;-60
2021/06/27 09:19:43;;;;;;;;;;;;;;;;;;5065396;28;2048;-60
2021/06/27 09:22:09;;;;;;;;;;;;;;;;;;5080333;28;1906;-61
2021/06/27 09:24:34;;;;;;;;;;;;;;;;;;5069087;28;1902;-61
2021/06/27 09:27:14;;;;;;;;;;;;;;;;;;5083838;28;1584;-61
2021/06/27 09:29:39;;;;;;;;;;;;;;;;;;5059726;28;2119;-61
2021/06/27 09:32:13;;;;;;;;;;;;;;;;;;5048379;28;2085;-61
2021/06/27 09:34:41;;;;;;;;;;;;;;;;;;5064287;28;1929;-61
2021/06/27 09:37:06;;;;;;;;;;;;;;;;;;5065389;28;2995;-61
2021/06/27 09:39:33;;;;;;;;;;;;;;;;;;5082682;28;1651;-61
2021/06/27 09:42:00;;;;;;;;;;;;;;;;;;5079474;28;3171;-61
2021/06/27 09:44:25;;;;;;;;;;;;;;;;;;5079315;28;1914;-63
2021/06/27 09:46:51;;;;;;;;;;;;;;;;;;5081450;28;1644;-61
2021/06/27 09:49:16;;;;;;;;;;;;;;;;;;5066282;28;3472;-61
2021/06/27 09:52:08;;;;;;;;;;;;;;;;;;5059295;28;1767;-62
2021/06/27 09:54:34;;;;;;;;;;;;;;;;;;5054066;28;2028;-65
2021/06/27 09:56:59;;;;;;;;;;;;;;;;;;5074458;28;3404;-61
2021/06/27 09:59:34;;;;;;;;;;;;;;;;;;5056557;28;1528;-63
2021/06/27 10:01:59;;;;;;;;;;;;;;;;;;5052607;28;3401;-62
2021/06/27 10:04:29;;;;;;;;;;;;;;;;;;5057913;28;1451;-62
2021/06/27 10:06:55;;;;;;;;;;;;;;;;;;5052836;28;1990;-62
2021/06/27 10:09:21;;;;;;;;;;;;;;;;;;5058724;28;3400;-62
2021/06/27 10:12:00;;;;;;;;;;;;;;;;;;5036644;28;1734;-63
2021/06/27 10:14:33;;;;;;;;;;;;;;;;;;5047196;28;3247;-62
2021/06/27 10:16:58;;;;;;;;;;;;;;;;;;5053260;28;1623;-63
2021/06/27 10:19:24;;;;;;;;;;;;;;;;;;5052807;28;1950;-63
2021/06/27 10:21:49;;;;;;;;;;;;;;;;;;5051900;28;1902;-62
2021/06/27 10:24:14;;;;;;;;;;;;;;;;;;5073916;28;3283;-63
2021/06/27 10:26:40;;;;;;;;;;;;;;;;;;5053018;28;1894;-62
2021/06/27 10:29:05;;;;;;;;;;;;;;;;;;5049272;28;1686;-62
2021/06/27 10:31:30;;;;;;;;;;;;;;;;;;5054623;28;2317;-63
2021/06/27 10:33:56;;;;;;;;;;;;;;;;;;5055037;28;1982;-63
2021/06/27 10:36:26;;;;;;;;;;;;;;;;;;5056674;28;1658;-62
2021/06/27 10:38:51;;;;;;;;;;;;;;;;;;5072010;28;1939;-63
2021/06/27 10:41:16;;;;;;;;;;;;;;;;;;5054696;28;1678;-62
2021/06/27 10:44:14;;;;;;;;;;;;;;;;;;5047466;28;3854;-63
2021/06/27 10:46:39;;;;;;;;;;;;;;;;;;5021211;28;3331;-63
2021/06/27 10:49:05;;;;;;;;;;;;;;;;;;5054556;28;1686;-62
2021/06/27 10:51:53;;;;;;;;;;;;;;;;;;5054766;28;1939;-63
2021/06/27 10:56:59;;;;;;;;;;;;;;;;;;5071713;27;9662;-67
2021/06/27 11:02:36;;;;;;;;;;;;;;;;;;5014356;28;3257;-66
2021/06/27 11:05:20;;;;;;;;;;;;;;;;;;5004748;28;1766;-67
2021/06/27 11:07:46;;;;;;;;;;;;;;;;;;5012333;28;11152;-69
2021/06/27 11:10:17;;;;;;;;;;;;;;;;;;5009581;28;1889;-67
2021/06/27 11:12:58;;;;;;;;;;;;;;;;;;5014406;28;3343;-67
2021/06/27 11:15:27;;;;;;;;;;;;;;;;;;5013650;28;1976;-67
2021/06/27 11:17:53;;;;;;;;;;;;;;;;;;5012482;28;1977;-70
2021/06/27 11:20:18;;;;;;;;;;;;;;;;;;5019669;28;1684;-70
2021/06/27 11:22:50;;;;;;;;;;;;;;;;;;5009247;28;2001;-66
2021/06/27 11:25:34;;;;;;;;;;;;;;;;;;5019127;28;2392;-68
2021/06/27 11:28:18;;;;;;;;;;;;;;;;;;5009988;28;1652;-68
